sensor_id;sensor_type;location;lat;lon;timestamp;pressure;altitude;pressure_sealevel;temperature;humidity
72024;BME280;59889;50.700;5.440;2023-11-21T00:01:00;99529.00;;;21.37;36.60
72024;BME280;59889;50.700;5.440;2023-11-21T00:03:25;99536.80;;;21.31;36.38
72024;BME280;59889;50.700;5.440;2023-11-21T00:05:50;99539.61;;;21.12;36.62
72024;BME280;59889;50.700;5.440;2023-11-21T00:08:15;99539.23;;;21.11;36.63
72024;BME280;59889;50.700;5.440;2023-11-21T00:10:40;99540.59;;;21.14;36.61
72024;BME280;59889;50.700;5.440;2023-11-21T00:13:05;99539.00;;;21.20;36.49
72024;BME280;59889;50.700;5.440;2023-11-21T00:15:30;99541.72;;;20.86;36.64
72024;BME280;59889;50.700;5.440;2023-11-21T00:17:55;99540.95;;;20.79;36.72
72024;BME280;59889;50.700;5.440;2023-11-21T00:20:20;99540.57;;;21.27;36.74
72024;BME280;59889;50.700;5.440;2023-11-21T00:22:45;99542.85;;;21.24;36.50
72024;BME280;59889;50.700;5.440;2023-11-21T00:25:12;99543.51;;;21.02;36.73
72024;BME280;59889;50.700;5.440;2023-11-21T00:27:35;99542.40;;;20.85;36.67
72024;BME280;59889;50.700;5.440;2023-11-21T00:30:00;99545.07;;;20.87;36.64
72024;BME280;59889;50.700;5.440;2023-11-21T00:32:25;99548.12;;;21.10;36.64
72024;BME280;59889;50.700;5.440;2023-11-21T00:34:50;99548.25;;;21.11;36.63
72024;BME280;59889;50.700;5.440;2023-11-21T00:37:15;99552.09;;;20.53;36.77
72024;BME280;59889;50.700;5.440;2023-11-21T00:39:41;99553.92;;;21.19;36.54
72024;BME280;59889;50.700;5.440;2023-11-21T00:42:07;99554.35;;;21.02;36.74
72024;BME280;59889;50.700;5.440;2023-11-21T00:44:30;99557.57;;;21.08;36.66
72024;BME280;59889;50.700;5.440;2023-11-21T00:46:55;99560.52;;;21.09;36.65
72024;BME280;59889;50.700;5.440;2023-11-21T00:49:20;99562.38;;;20.87;36.63
72024;BME280;59889;50.700;5.440;2023-11-21T00:51:46;99564.63;;;21.04;36.68
72024;BME280;59889;50.700;5.440;2023-11-21T00:54:11;99564.86;;;21.08;36.65
72024;BME280;59889;50.700;5.440;2023-11-21T00:56:36;99570.15;;;21.01;36.75
72024;BME280;59889;50.700;5.440;2023-11-21T00:59:01;99566.61;;;21.15;36.59
72024;BME280;59889;50.700;5.440;2023-11-21T01:01:27;99562.75;;;21.04;36.70
72024;BME280;59889;50.700;5.440;2023-11-21T01:03:51;99564.45;;;20.94;36.53
72024;BME280;59889;50.700;5.440;2023-11-21T01:06:16;99570.34;;;21.01;36.74
72024;BME280;59889;50.700;5.440;2023-11-21T01:08:41;99568.85;;;21.11;36.62
72024;BME280;59889;50.700;5.440;2023-11-21T01:11:06;99572.59;;;21.07;36.68
72024;BME280;59889;50.700;5.440;2023-11-21T01:13:31;99574.47;;;20.87;36.61
72024;BME280;59889;50.700;5.440;2023-11-21T01:15:56;99574.88;;;21.09;36.63
72024;BME280;59889;50.700;5.440;2023-11-21T01:18:21;99576.10;;;21.12;36.60
72024;BME280;59889;50.700;5.440;2023-11-21T01:20:46;99582.04;;;21.15;36.58
72024;BME280;59889;50.700;5.440;2023-11-21T01:23:11;99582.45;;;21.42;36.55
72024;BME280;59889;50.700;5.440;2023-11-21T01:25:38;99584.69;;;21.04;36.70
72024;BME280;59889;50.700;5.440;2023-11-21T01:28:01;99583.44;;;21.08;36.64
72024;BME280;59889;50.700;5.440;2023-11-21T01:30:26;99587.52;;;20.97;36.78
72024;BME280;59889;50.700;5.440;2023-11-21T01:32:51;99588.81;;;20.74;36.78
72024;BME280;59889;50.700;5.440;2023-11-21T01:35:16;99587.19;;;20.84;36.66
72024;BME280;59889;50.700;5.440;2023-11-21T01:37:41;99589.88;;;20.78;36.74
72024;BME280;59889;50.700;5.440;2023-11-21T01:40:08;99588.11;;;21.08;36.65
72024;BME280;59889;50.700;5.440;2023-11-21T01:42:31;99588.66;;;20.77;36.72
72024;BME280;59889;50.700;5.440;2023-11-21T01:44:57;99588.43;;;20.99;36.49
72024;BME280;59889;50.700;5.440;2023-11-21T01:47:21;99591.83;;;20.76;36.75
72024;BME280;59889;50.700;5.440;2023-11-21T01:49:47;99591.94;;;20.92;36.86
72024;BME280;59889;50.700;5.440;2023-11-21T01:52:12;99590.88;;;20.80;36.69
72024;BME280;59889;50.700;5.440;2023-11-21T01:54:42;99586.01;;;21.08;36.64
72024;BME280;59889;50.700;5.440;2023-11-21T01:57:03;99586.70;;;21.07;36.66
72024;BME280;59889;50.700;5.440;2023-11-21T01:59:27;99586.85;;;20.95;36.81
72024;BME280;59889;50.700;5.440;2023-11-21T02:01:52;99586.37;;;21.04;36.68
72024;BME280;59889;50.700;5.440;2023-11-21T02:04:18;99587.49;;;21.08;36.64
72024;BME280;59889;50.700;5.440;2023-11-21T02:06:42;99592.31;;;20.91;36.55
72024;BME280;59889;50.700;5.440;2023-11-21T02:09:07;99592.05;;;20.99;36.76
72024;BME280;59889;50.700;5.440;2023-11-21T02:11:32;99590.36;;;21.12;36.56
72024;BME280;59889;50.700;5.440;2023-11-21T02:13:59;99592.28;;;20.92;36.83
72024;BME280;59889;50.700;5.440;2023-11-21T02:16:22;99592.74;;;21.03;36.67
72024;BME280;59889;50.700;5.440;2023-11-21T02:18:47;99596.01;;;20.99;36.45
72024;BME280;59889;50.700;5.440;2023-11-21T02:21:12;99600.24;;;21.03;36.67
72024;BME280;59889;50.700;5.440;2023-11-21T02:23:37;99601.31;;;20.73;36.77
72024;BME280;59889;50.700;5.440;2023-11-21T02:26:02;99602.19;;;20.88;36.57
72024;BME280;59889;50.700;5.440;2023-11-21T02:28:27;99602.97;;;20.84;36.63
72024;BME280;59889;50.700;5.440;2023-11-21T02:30:52;99603.68;;;20.80;36.67
72024;BME280;59889;50.700;5.440;2023-11-21T02:33:17;99605.22;;;20.89;36.57
72024;BME280;59889;50.700;5.440;2023-11-21T02:35:42;99605.31;;;21.02;36.68
72024;BME280;59889;50.700;5.440;2023-11-21T02:38:07;99606.24;;;20.83;36.63
72024;BME280;59889;50.700;5.440;2023-11-21T02:40:37;99608.21;;;21.09;36.60
72024;BME280;59889;50.700;5.440;2023-11-21T02:42:57;99609.90;;;21.32;36.60
72024;BME280;59889;50.700;5.440;2023-11-21T02:45:22;99608.32;;;21.02;36.70
72024;BME280;59889;50.700;5.440;2023-11-21T02:47:48;99612.30;;;20.87;36.90
72024;BME280;59889;50.700;5.440;2023-11-21T02:50:13;99614.08;;;20.83;36.63
72024;BME280;59889;50.700;5.440;2023-11-21T02:52:38;99619.03;;;20.88;36.57
72024;BME280;59889;50.700;5.440;2023-11-21T02:55:03;99618.93;;;20.80;36.67
72024;BME280;59889;50.700;5.440;2023-11-21T02:57:28;99619.98;;;21.03;36.68
72024;BME280;59889;50.700;5.440;2023-11-21T02:59:53;99621.99;;;21.00;36.74
72024;BME280;59889;50.700;5.440;2023-11-21T03:02:23;99623.39;;;21.05;36.68
72024;BME280;59889;50.700;5.440;2023-11-21T03:04:43;99624.46;;;20.94;36.82
72024;BME280;59889;50.700;5.440;2023-11-21T03:07:08;99623.99;;;20.95;36.80
72024;BME280;59889;50.700;5.440;2023-11-21T03:09:33;99623.96;;;20.78;36.71
72024;BME280;59889;50.700;5.440;2023-11-21T03:11:58;99630.12;;;20.95;36.81
72024;BME280;59889;50.700;5.440;2023-11-21T03:14:24;99631.97;;;20.96;36.80
72024;BME280;59889;50.700;5.440;2023-11-21T03:16:48;99632.40;;;21.10;36.60
72024;BME280;59889;50.700;5.440;2023-11-21T03:19:13;99635.70;;;21.01;36.72
72024;BME280;59889;50.700;5.440;2023-11-21T03:21:38;99633.82;;;21.03;36.67
72024;BME280;59889;50.700;5.440;2023-11-21T03:24:04;99636.85;;;21.09;36.61
72024;BME280;59889;50.700;5.440;2023-11-21T03:26:33;99639.21;;;20.67;36.85
72024;BME280;59889;50.700;5.440;2023-11-21T03:28:53;99640.43;;;21.16;36.55
72024;BME280;59889;50.700;5.440;2023-11-21T03:31:23;99640.29;;;20.80;36.68
72024;BME280;59889;50.700;5.440;2023-11-21T03:33:43;99644.01;;;21.06;36.64
72024;BME280;59889;50.700;5.440;2023-11-21T03:36:09;99649.07;;;20.80;36.68
72024;BME280;59889;50.700;5.440;2023-11-21T03:38:33;99650.85;;;21.03;36.72
72024;BME280;59889;50.700;5.440;2023-11-21T03:40:58;99654.67;;;20.98;36.73
72024;BME280;59889;50.700;5.440;2023-11-21T03:43:23;99653.47;;;20.97;36.77
72024;BME280;59889;50.700;5.440;2023-11-21T03:45:48;99651.09;;;20.93;36.82
72024;BME280;59889;50.700;5.440;2023-11-21T03:48:13;99652.63;;;20.98;36.75
72024;BME280;59889;50.700;5.440;2023-11-21T03:50:38;99657.17;;;21.06;36.66
72024;BME280;59889;50.700;5.440;2023-11-21T03:53:04;99659.45;;;21.06;36.67
72024;BME280;59889;50.700;5.440;2023-11-21T03:55:28;99662.02;;;20.98;36.76
72024;BME280;59889;50.700;5.440;2023-11-21T03:57:53;99663.86;;;21.30;36.36
72024;BME280;59889;50.700;5.440;2023-11-21T04:00:19;99666.79;;;21.23;36.45
72024;BME280;59889;50.700;5.440;2023-11-21T04:02:45;99666.43;;;21.15;36.54
72024;BME280;59889;50.700;5.440;2023-11-21T04:05:09;99668.82;;;21.02;36.40
72024;BME280;59889;50.700;5.440;2023-11-21T04:07:34;99667.66;;;20.82;36.61
72024;BME280;59889;50.700;5.440;2023-11-21T04:09:59;99673.58;;;21.19;36.49
72024;BME280;59889;50.700;5.440;2023-11-21T04:12:24;99674.44;;;21.09;36.60
72024;BME280;59889;50.700;5.440;2023-11-21T04:14:49;99676.89;;;21.09;36.60
72024;BME280;59889;50.700;5.440;2023-11-21T04:17:17;99678.38;;;21.05;36.64
72024;BME280;59889;50.700;5.440;2023-11-21T04:19:39;99683.25;;;20.74;36.75
72024;BME280;59889;50.700;5.440;2023-11-21T04:22:04;99684.09;;;20.98;36.73
72024;BME280;59889;50.700;5.440;2023-11-21T04:24:29;99686.51;;;20.98;36.75
72024;BME280;59889;50.700;5.440;2023-11-21T04:26:54;99689.03;;;21.00;36.75
72024;BME280;59889;50.700;5.440;2023-11-21T04:29:19;99684.24;;;21.03;36.70
72024;BME280;59889;50.700;5.440;2023-11-21T04:31:44;99688.00;;;21.05;36.67
72024;BME280;59889;50.700;5.440;2023-11-21T04:34:09;99689.66;;;20.95;36.82
72024;BME280;59889;50.700;5.440;2023-11-21T04:36:34;99692.95;;;20.90;36.86
72024;BME280;59889;50.700;5.440;2023-11-21T04:38:59;99687.95;;;21.16;36.52
72024;BME280;59889;50.700;5.440;2023-11-21T04:41:24;99690.01;;;21.00;36.74
72024;BME280;59889;50.700;5.440;2023-11-21T04:43:49;99689.18;;;21.08;36.67
72024;BME280;59889;50.700;5.440;2023-11-21T04:46:14;99693.72;;;20.92;36.83
72024;BME280;59889;50.700;5.440;2023-11-21T04:48:39;99697.07;;;20.88;36.89
72024;BME280;59889;50.700;5.440;2023-11-21T04:51:05;99698.45;;;20.96;36.79
72024;BME280;59889;50.700;5.440;2023-11-21T04:53:29;99701.96;;;20.90;36.56
72024;BME280;59889;50.700;5.440;2023-11-21T04:55:54;99700.32;;;21.22;36.47
72024;BME280;59889;50.700;5.440;2023-11-21T04:58:19;99699.83;;;21.04;36.66
72024;BME280;59889;50.700;5.440;2023-11-21T05:00:44;99704.08;;;21.01;36.72
72024;BME280;59889;50.700;5.440;2023-11-21T05:03:10;99710.01;;;21.20;36.49
72024;BME280;59889;50.700;5.440;2023-11-21T05:05:34;99715.52;;;21.01;36.71
72024;BME280;59889;50.700;5.440;2023-11-21T05:08:00;99713.97;;;20.62;37.72
72024;BME280;59889;50.700;5.440;2023-11-21T05:10:25;99718.87;;;20.80;37.75
72024;BME280;59889;50.700;5.440;2023-11-21T05:12:50;99724.05;;;20.79;37.46
72024;BME280;59889;50.700;5.440;2023-11-21T05:15:15;99727.11;;;21.10;36.96
72024;BME280;59889;50.700;5.440;2023-11-21T05:17:40;99723.39;;;20.90;37.05
72024;BME280;59889;50.700;5.440;2023-11-21T05:20:06;99723.91;;;21.10;36.67
72024;BME280;59889;50.700;5.440;2023-11-21T05:22:30;99724.60;;;20.83;36.82
72024;BME280;59889;50.700;5.440;2023-11-21T05:24:56;99727.54;;;20.76;36.90
72024;BME280;59889;50.700;5.440;2023-11-21T05:27:20;99727.55;;;20.75;36.77
72024;BME280;59889;50.700;5.440;2023-11-21T05:29:45;99732.72;;;21.03;37.08
72024;BME280;59889;50.700;5.440;2023-11-21T05:32:10;99738.07;;;20.84;37.29
72024;BME280;59889;50.700;5.440;2023-11-21T05:34:35;99742.85;;;20.90;37.31
72024;BME280;59889;50.700;5.440;2023-11-21T05:37:00;99745.41;;;20.78;37.54
72024;BME280;59889;50.700;5.440;2023-11-21T05:39:26;99748.76;;;20.66;37.72
72024;BME280;59889;50.700;5.440;2023-11-21T05:41:50;99750.93;;;20.80;37.86
72024;BME280;59889;50.700;5.440;2023-11-21T05:44:15;99755.44;;;20.65;37.72
72024;BME280;59889;50.700;5.440;2023-11-21T05:46:41;99760.91;;;20.68;37.75
72024;BME280;59889;50.700;5.440;2023-11-21T05:49:06;99763.29;;;20.67;37.84
72024;BME280;59889;50.700;5.440;2023-11-21T05:51:31;99763.24;;;20.60;37.89
72024;BME280;59889;50.700;5.440;2023-11-21T05:53:56;99762.63;;;20.55;37.98
72024;BME280;59889;50.700;5.440;2023-11-21T05:56:21;99765.83;;;20.79;37.67
72024;BME280;59889;50.700;5.440;2023-11-21T05:58:46;99764.79;;;20.53;37.98
72024;BME280;59889;50.700;5.440;2023-11-21T06:01:11;99767.97;;;20.55;37.98
72024;BME280;59889;50.700;5.440;2023-11-21T06:03:37;99772.67;;;20.65;37.80
72024;BME280;59889;50.700;5.440;2023-11-21T06:06:02;99779.16;;;20.64;37.83
72024;BME280;59889;50.700;5.440;2023-11-21T06:08:27;99780.98;;;20.67;37.77
72024;BME280;59889;50.700;5.440;2023-11-21T06:10:52;99782.62;;;20.79;37.64
72024;BME280;59889;50.700;5.440;2023-11-21T06:13:17;99781.05;;;20.75;37.72
72024;BME280;59889;50.700;5.440;2023-11-21T06:15:42;99788.33;;;20.54;37.62
72024;BME280;59889;50.700;5.440;2023-11-21T06:18:07;99794.89;;;20.64;37.88
72024;BME280;59889;50.700;5.440;2023-11-21T06:20:32;99799.02;;;20.66;37.87
72024;BME280;59889;50.700;5.440;2023-11-21T06:22:57;99802.43;;;20.71;37.84
72024;BME280;59889;50.700;5.440;2023-11-21T06:25:22;99805.37;;;20.60;38.03
72024;BME280;59889;50.700;5.440;2023-11-21T06:27:48;99804.93;;;20.79;37.79
72024;BME280;59889;50.700;5.440;2023-11-21T06:30:13;99806.56;;;20.62;38.02
72024;BME280;59889;50.700;5.440;2023-11-21T06:32:38;99809.14;;;20.65;38.00
72024;BME280;59889;50.700;5.440;2023-11-21T06:35:03;99810.51;;;20.54;38.13
72024;BME280;59889;50.700;5.440;2023-11-21T06:37:28;99815.67;;;20.59;38.02
72024;BME280;59889;50.700;5.440;2023-11-21T06:39:52;99821.38;;;20.59;38.07
72024;BME280;59889;50.700;5.440;2023-11-21T06:42:17;99824.65;;;20.62;37.99
72024;BME280;59889;50.700;5.440;2023-11-21T06:44:42;99825.06;;;20.79;38.09
72024;BME280;59889;50.700;5.440;2023-11-21T06:47:07;99829.92;;;20.88;38.01
72024;BME280;59889;50.700;5.440;2023-11-21T06:49:33;99831.54;;;20.70;37.90
72024;BME280;59889;50.700;5.440;2023-11-21T06:51:58;99836.25;;;20.91;37.95
72024;BME280;59889;50.700;5.440;2023-11-21T06:54:23;99841.86;;;20.55;38.09
72024;BME280;59889;50.700;5.440;2023-11-21T06:56:48;99844.98;;;20.59;38.07
72024;BME280;59889;50.700;5.440;2023-11-21T06:59:13;99849.29;;;20.67;37.93
72024;BME280;59889;50.700;5.440;2023-11-21T07:01:39;99853.16;;;20.75;37.83
72024;BME280;59889;50.700;5.440;2023-11-21T07:04:04;99855.27;;;20.88;37.98
72024;BME280;59889;50.700;5.440;2023-11-21T07:06:28;99857.33;;;20.62;38.13
72024;BME280;59889;50.700;5.440;2023-11-21T07:08:53;99858.84;;;20.63;38.20
72024;BME280;59889;50.700;5.440;2023-11-21T07:11:19;99863.60;;;20.96;37.75
72024;BME280;59889;50.700;5.440;2023-11-21T07:13:44;99863.83;;;20.89;38.26
72024;BME280;59889;50.700;5.440;2023-11-21T07:16:09;99864.96;;;20.60;38.41
72024;BME280;59889;50.700;5.440;2023-11-21T07:18:34;99866.54;;;20.62;38.39
72024;BME280;59889;50.700;5.440;2023-11-21T07:20:59;99867.46;;;20.84;38.45
72024;BME280;59889;50.700;5.440;2023-11-21T07:23:24;99872.74;;;20.84;38.45
72024;BME280;59889;50.700;5.440;2023-11-21T07:25:49;99873.14;;;20.70;38.35
72024;BME280;59889;50.700;5.440;2023-11-21T07:28:15;99880.26;;;20.90;38.37
72024;BME280;59889;50.700;5.440;2023-11-21T07:30:40;99888.12;;;20.59;38.40
72024;BME280;59889;50.700;5.440;2023-11-21T07:33:05;99892.07;;;20.53;38.55
72024;BME280;59889;50.700;5.440;2023-11-21T07:35:30;99892.47;;;20.52;38.54
72024;BME280;59889;50.700;5.440;2023-11-21T07:37:56;99893.20;;;20.86;38.26
72024;BME280;59889;50.700;5.440;2023-11-21T07:40:21;99893.20;;;20.58;38.41
72024;BME280;59889;50.700;5.440;2023-11-21T07:42:46;99891.56;;;20.62;38.32
72024;BME280;59889;50.700;5.440;2023-11-21T07:45:11;99893.35;;;20.53;38.47
72024;BME280;59889;50.700;5.440;2023-11-21T07:47:36;99901.78;;;20.70;38.58
72024;BME280;59889;50.700;5.440;2023-11-21T07:50:02;99911.92;;;20.83;38.43
72024;BME280;59889;50.700;5.440;2023-11-21T07:52:26;99916.44;;;20.56;38.39
72024;BME280;59889;50.700;5.440;2023-11-21T07:54:51;99920.42;;;20.68;38.50
72024;BME280;59889;50.700;5.440;2023-11-21T07:57:16;99925.71;;;20.43;38.50
72024;BME280;59889;50.700;5.440;2023-11-21T07:59:42;99927.59;;;20.55;38.35
72024;BME280;59889;50.700;5.440;2023-11-21T08:02:07;99930.75;;;20.90;38.15
72024;BME280;59889;50.700;5.440;2023-11-21T08:04:32;99931.58;;;20.56;38.26
72024;BME280;59889;50.700;5.440;2023-11-21T08:06:57;99933.28;;;20.93;38.40
72024;BME280;59889;50.700;5.440;2023-11-21T08:09:23;99931.90;;;20.48;38.35
72024;BME280;59889;50.700;5.440;2023-11-21T08:11:48;99936.80;;;20.74;38.26
72024;BME280;59889;50.700;5.440;2023-11-21T08:14:13;99936.43;;;20.52;38.21
72024;BME280;59889;50.700;5.440;2023-11-21T08:16:38;99941.09;;;20.53;38.18
72024;BME280;59889;50.700;5.440;2023-11-21T08:19:03;99947.26;;;20.48;38.23
72024;BME280;59889;50.700;5.440;2023-11-21T08:21:28;99948.74;;;20.49;38.20
72024;BME280;59889;50.700;5.440;2023-11-21T08:23:54;99953.66;;;20.55;38.06
72024;BME280;59889;50.700;5.440;2023-11-21T08:26:20;99957.82;;;20.43;38.16
72024;BME280;59889;50.700;5.440;2023-11-21T08:28:44;99962.47;;;20.99;38.09
72024;BME280;59889;50.700;5.440;2023-11-21T08:31:09;99966.13;;;20.46;38.10
72024;BME280;59889;50.700;5.440;2023-11-21T08:33:34;99969.26;;;20.70;38.11
72024;BME280;59889;50.700;5.440;2023-11-21T08:35:59;99967.38;;;20.49;38.03
72024;BME280;59889;50.700;5.440;2023-11-21T08:38:24;99970.32;;;20.49;38.01
72024;BME280;59889;50.700;5.440;2023-11-21T08:40:49;99974.93;;;20.32;38.24
72024;BME280;59889;50.700;5.440;2023-11-21T08:43:14;99976.13;;;20.40;38.09
72024;BME280;59889;50.700;5.440;2023-11-21T08:45:39;99975.62;;;20.45;38.01
72024;BME280;59889;50.700;5.440;2023-11-21T08:48:05;99979.00;;;20.44;37.99
72024;BME280;59889;50.700;5.440;2023-11-21T08:50:29;99982.81;;;20.27;38.18
72024;BME280;59889;50.700;5.440;2023-11-21T08:52:55;99988.72;;;20.48;37.97
72024;BME280;59889;50.700;5.440;2023-11-21T08:55:20;99989.55;;;20.37;38.07
72024;BME280;59889;50.700;5.440;2023-11-21T08:57:45;99985.78;;;20.56;38.09
72024;BME280;59889;50.700;5.440;2023-11-21T09:00:11;99983.96;;;20.36;38.04
72024;BME280;59889;50.700;5.440;2023-11-21T09:02:37;99985.11;;;20.41;37.98
72024;BME280;59889;50.700;5.440;2023-11-21T09:05:01;99993.57;;;20.40;37.96
72024;BME280;59889;50.700;5.440;2023-11-21T09:07:27;99997.77;;;20.44;37.89
72024;BME280;59889;50.700;5.440;2023-11-21T09:09:52;100001.18;;;20.33;38.01
72024;BME280;59889;50.700;5.440;2023-11-21T09:12:17;100004.16;;;20.36;37.96
72024;BME280;59889;50.700;5.440;2023-11-21T09:14:42;100008.12;;;20.47;37.82
72024;BME280;59889;50.700;5.440;2023-11-21T09:17:08;100010.55;;;20.62;37.92
72024;BME280;59889;50.700;5.440;2023-11-21T09:19:32;100019.43;;;20.34;37.96
72024;BME280;59889;50.700;5.440;2023-11-21T09:21:57;100021.51;;;20.40;37.85
72024;BME280;59889;50.700;5.440;2023-11-21T09:24:23;100023.38;;;20.73;37.73
72024;BME280;59889;50.700;5.440;2023-11-21T09:26:48;100026.23;;;20.39;37.84
72024;BME280;59889;50.700;5.440;2023-11-21T09:29:13;100029.13;;;20.35;37.85
72024;BME280;59889;50.700;5.440;2023-11-21T09:31:38;100030.87;;;20.32;37.87
72024;BME280;59889;50.700;5.440;2023-11-21T09:34:03;100029.63;;;20.70;37.65
72024;BME280;59889;50.700;5.440;2023-11-21T09:36:28;100032.14;;;20.68;37.65
72024;BME280;59889;50.700;5.440;2023-11-21T09:38:54;100034.00;;;20.37;37.74
72024;BME280;59889;50.700;5.440;2023-11-21T09:41:23;100033.16;;;20.45;37.64
72024;BME280;59889;50.700;5.440;2023-11-21T09:43:46;100034.70;;;20.37;37.69
72024;BME280;59889;50.700;5.440;2023-11-21T09:46:11;100035.11;;;20.35;37.71
72024;BME280;59889;50.700;5.440;2023-11-21T09:48:36;100036.35;;;20.46;37.57
72024;BME280;59889;50.700;5.440;2023-11-21T09:51:00;100038.01;;;20.36;37.70
72024;BME280;59889;50.700;5.440;2023-11-21T09:53:28;100042.63;;;20.41;37.58
72024;BME280;59889;50.700;5.440;2023-11-21T09:55:52;100040.64;;;20.49;37.49
72024;BME280;59889;50.700;5.440;2023-11-21T09:58:16;100042.26;;;20.42;37.57
72024;BME280;59889;50.700;5.440;2023-11-21T10:00:41;100046.95;;;20.50;37.48
72024;BME280;59889;50.700;5.440;2023-11-21T10:03:05;100055.24;;;20.83;37.36
72024;BME280;59889;50.700;5.440;2023-11-21T10:05:30;100057.08;;;20.47;37.52
72024;BME280;59889;50.700;5.440;2023-11-21T10:07:56;100057.78;;;20.46;37.51
72024;BME280;59889;50.700;5.440;2023-11-21T10:10:21;100062.08;;;20.42;37.56
72024;BME280;59889;50.700;5.440;2023-11-21T10:12:49;100068.14;;;20.89;37.54
72024;BME280;59889;50.700;5.440;2023-11-21T10:15:12;100067.85;;;20.35;37.61
72024;BME280;59889;50.700;5.440;2023-11-21T10:17:38;100065.14;;;20.59;37.62
72024;BME280;59889;50.700;5.440;2023-11-21T10:20:03;100065.79;;;20.40;37.55
72024;BME280;59889;50.700;5.440;2023-11-21T10:22:27;100068.21;;;20.77;37.69
72024;BME280;59889;50.700;5.440;2023-11-21T10:24:52;100070.66;;;20.41;37.51
72024;BME280;59889;50.700;5.440;2023-11-21T10:27:17;100073.29;;;20.67;37.51
72024;BME280;59889;50.700;5.440;2023-11-21T10:29:42;100073.86;;;20.49;37.70
72024;BME280;59889;50.700;5.440;2023-11-21T10:32:08;100073.35;;;20.50;37.68
72024;BME280;59889;50.700;5.440;2023-11-21T10:34:33;100076.69;;;20.54;37.62
72024;BME280;59889;50.700;5.440;2023-11-21T10:36:58;100077.10;;;20.49;37.65
72024;BME280;59889;50.700;5.440;2023-11-21T10:39:24;100077.51;;;20.65;37.48
72024;BME280;59889;50.700;5.440;2023-11-21T10:41:49;100074.44;;;20.33;37.62
72024;BME280;59889;50.700;5.440;2023-11-21T10:44:14;100076.33;;;20.46;37.44
72024;BME280;59889;50.700;5.440;2023-11-21T10:46:39;100080.17;;;20.38;37.57
72024;BME280;59889;50.700;5.440;2023-11-21T10:49:05;100079.64;;;20.34;37.64
72024;BME280;59889;50.700;5.440;2023-11-21T10:51:29;100075.32;;;20.30;37.69
72024;BME280;59889;50.700;5.440;2023-11-21T10:53:54;100074.67;;;20.34;37.61
72024;BME280;59889;50.700;5.440;2023-11-21T10:56:23;100070.52;;;20.58;37.63
72024;BME280;59889;50.700;5.440;2023-11-21T10:58:45;100069.50;;;20.47;37.41
72024;BME280;59889;50.700;5.440;2023-11-21T11:01:10;100070.94;;;20.63;37.49
72024;BME280;59889;50.700;5.440;2023-11-21T11:03:36;100074.64;;;20.60;37.52
72024;BME280;59889;50.700;5.440;2023-11-21T11:06:00;100076.67;;;20.65;37.43
72024;BME280;59889;50.700;5.440;2023-11-21T11:08:25;100077.23;;;20.27;37.59
72024;BME280;59889;50.700;5.440;2023-11-21T11:10:51;100077.47;;;20.42;37.39
72024;BME280;59889;50.700;5.440;2023-11-21T11:13:15;100079.96;;;20.43;37.43
72024;BME280;59889;50.700;5.440;2023-11-21T11:15:40;100079.82;;;20.52;37.60
72024;BME280;59889;50.700;5.440;2023-11-21T11:18:05;100078.66;;;20.49;37.36
72024;BME280;59889;50.700;5.440;2023-11-21T11:20:34;100076.61;;;20.69;37.39
72024;BME280;59889;50.700;5.440;2023-11-21T11:23:09;100074.76;;;20.32;37.57
72024;BME280;59889;50.700;5.440;2023-11-21T11:25:36;100075.26;;;20.30;37.60
72024;BME280;59889;50.700;5.440;2023-11-21T11:27:54;100073.24;;;20.47;37.40
72024;BME280;59889;50.700;5.440;2023-11-21T11:30:19;100074.74;;;20.43;37.48
72024;BME280;59889;50.700;5.440;2023-11-21T11:32:43;100073.31;;;20.65;37.48
72024;BME280;59889;50.700;5.440;2023-11-21T11:35:04;100072.65;;;20.77;37.65
72024;BME280;59889;50.700;5.440;2023-11-21T11:37:25;100076.80;;;20.49;37.40
72024;BME280;59889;50.700;5.440;2023-11-21T11:39:50;100079.31;;;20.41;37.51
72024;BME280;59889;50.700;5.440;2023-11-21T11:42:17;100079.93;;;20.24;37.72
72024;BME280;59889;50.700;5.440;2023-11-21T11:44:49;100085.73;;;20.65;37.49
72024;BME280;59889;50.700;5.440;2023-11-21T11:47:13;100087.19;;;20.32;37.64
72024;BME280;59889;50.700;5.440;2023-11-21T11:49:31;100090.82;;;20.88;37.52
72024;BME280;59889;50.700;5.440;2023-11-21T11:56:47;100092.73;;;20.61;37.56
72024;BME280;59889;50.700;5.440;2023-11-21T11:59:11;100094.58;;;20.37;37.57
72024;BME280;59889;50.700;5.440;2023-11-21T12:01:36;100100.77;;;20.41;37.54
72024;BME280;59889;50.700;5.440;2023-11-21T12:06:33;100102.88;;;20.68;37.48
72024;BME280;59889;50.700;5.440;2023-11-21T12:08:52;100105.80;;;20.68;37.18
72024;BME280;59889;50.700;5.440;2023-11-21T12:11:17;100108.69;;;20.68;37.48
72024;BME280;59889;50.700;5.440;2023-11-21T12:13:42;100112.35;;;20.51;37.37
72024;BME280;59889;50.700;5.440;2023-11-21T12:16:07;100112.42;;;20.52;37.36
72024;BME280;59889;50.700;5.440;2023-11-21T12:18:32;100113.01;;;20.47;37.40
72024;BME280;59889;50.700;5.440;2023-11-21T12:20:57;100118.40;;;20.42;37.52
72024;BME280;59889;50.700;5.440;2023-11-21T12:23:22;100117.08;;;20.67;37.19
72024;BME280;59889;50.700;5.440;2023-11-21T12:25:48;100114.50;;;20.66;37.20
72024;BME280;59889;50.700;5.440;2023-11-21T12:28:12;100116.31;;;20.64;37.20
72024;BME280;59889;50.700;5.440;2023-11-21T12:30:37;100117.58;;;20.48;37.40
72024;BME280;59889;50.700;5.440;2023-11-21T12:33:03;100115.43;;;20.43;37.48
72024;BME280;59889;50.700;5.440;2023-11-21T12:35:28;100115.66;;;20.52;37.33
72024;BME280;59889;50.700;5.440;2023-11-21T12:37:53;100118.09;;;20.68;37.13
72024;BME280;59889;50.700;5.440;2023-11-21T12:40:18;100119.27;;;20.57;37.30
72024;BME280;59889;50.700;5.440;2023-11-21T12:42:44;100121.40;;;20.57;37.28
72024;BME280;59889;50.700;5.440;2023-11-21T12:45:09;100124.17;;;20.65;37.22
72024;BME280;59889;50.700;5.440;2023-11-21T12:47:34;100127.95;;;20.62;37.22
72024;BME280;59889;50.700;5.440;2023-11-21T12:49:58;100136.64;;;20.48;37.42
72024;BME280;59889;50.700;5.440;2023-11-21T12:52:23;100138.03;;;20.49;37.43